Impacts TAF Board
For situational awareness. Not to be used for flight planning purposes.
IDs:

KGWO - Greenwood/Leflore Ar, MS, US

Issued at 2332 UTC 05 Dec 2020
Updated at 0206 UTC 06 Dec 2020
Potential Impact None Slight Moderate High
Time0153Z 06/03Z 06/04Z 06/05Z 06/06Z 06/07Z 06/08Z 06/09Z 06/10Z 06/11Z 06/12Z 06/13Z 06/14Z 06/15Z>>
Type OBS PRVL PRVL PRVL PRVL PRVL PRVL PRVL PRVL PRVL PRVL PRVL PRVL PRVL
VIS 10 >6 >6 >6 >6 >6 >6 >6 >6 >6 >6 >6 >6 >6
CIG -- 250 250 250 250 250 250 250 250 250 250 250 250 250
Cover CLR BKN BKN BKN BKN BKN BKN BKN BKN BKN BKN BKN BKN BKN
FltCat VFR VFR VFR VFR VFR VFR VFR VFR VFR VFR VFR VFR VFR VFR
WX -- -- -- -- -- -- -- -- -- -- -- -- -- --
WDir VRB 240 240 240 240 240 240 240 240 240 240 240 240 240
WSpd 0 3 3 3 3 3 3 3 3 3 3 3 3 3
WGst -- -- -- -- -- -- -- -- -- -- -- -- -- --
Raw TAF
KGWO 052332Z 0600/0624 24003KT P6SM BKN250

Raw METAR
KGWO 060153Z AUTO 00000KT 10SM CLR 05/04 A3013 RMK AO2 SLP205 T00500039
KGWO 060053Z AUTO 00000KT 10SM CLR 07/05 A3014 RMK AO2 SLP207 T00720050
KGWO 052353Z AUTO 00000KT 10SM CLR 08/04 A3014 RMK AO2 SLP207 T00780044 10150 20072 55002

METAR Board
Radar Display
Forecast Discussion
For situational awareness. Not to be used for flight planning purposes.